sensor_id;sensor_type;location;lat;lon;timestamp;P1;durP1;ratioP1;P2;durP2;ratioP2
23078;SDS011;11707;50.830;4.364;2024-03-08T00:00:23;24.20;;;13.75;;
23078;SDS011;11707;50.830;4.364;2024-03-08T00:02:49;24.35;;;13.60;;
23078;SDS011;11707;50.830;4.364;2024-03-08T00:05:17;23.17;;;14.48;;
23078;SDS011;11707;50.830;4.364;2024-03-08T00:07:43;22.50;;;14.02;;
23078;SDS011;11707;50.830;4.364;2024-03-08T00:10:10;23.73;;;13.98;;
23078;SDS011;11707;50.830;4.364;2024-03-08T00:12:54;24.33;;;13.32;;
23078;SDS011;11707;50.830;4.364;2024-03-08T00:15:20;24.58;;;13.82;;
23078;SDS011;11707;50.830;4.364;2024-03-08T00:17:48;26.45;;;14.10;;
23078;SDS011;11707;50.830;4.364;2024-03-08T00:20:14;23.55;;;14.40;;
23078;SDS011;11707;50.830;4.364;2024-03-08T00:22:43;24.40;;;14.82;;
23078;SDS011;11707;50.830;4.364;2024-03-08T00:25:13;23.73;;;14.60;;
23078;SDS011;11707;50.830;4.364;2024-03-08T00:27:42;24.80;;;14.82;;
23078;SDS011;11707;50.830;4.364;2024-03-08T00:30:10;22.92;;;13.38;;
23078;SDS011;11707;50.830;4.364;2024-03-08T00:32:41;23.27;;;14.27;;
23078;SDS011;11707;50.830;4.364;2024-03-08T00:35:07;23.35;;;14.48;;
23078;SDS011;11707;50.830;4.364;2024-03-08T00:37:37;29.58;;;14.82;;
23078;SDS011;11707;50.830;4.364;2024-03-08T00:40:03;24.83;;;14.18;;
23078;SDS011;11707;50.830;4.364;2024-03-08T00:42:29;23.83;;;15.27;;
23078;SDS011;11707;50.830;4.364;2024-03-08T00:44:55;23.33;;;15.55;;
23078;SDS011;11707;50.830;4.364;2024-03-08T00:47:23;22.58;;;13.75;;
23078;SDS011;11707;50.830;4.364;2024-03-08T00:49:51;28.70;;;15.80;;
23078;SDS011;11707;50.830;4.364;2024-03-08T00:52:18;26.20;;;14.70;;
23078;SDS011;11707;50.830;4.364;2024-03-08T00:54:44;24.02;;;13.82;;
23078;SDS011;11707;50.830;4.364;2024-03-08T00:57:10;22.98;;;14.88;;
23078;SDS011;11707;50.830;4.364;2024-03-08T00:59:39;23.10;;;13.63;;
23078;SDS011;11707;50.830;4.364;2024-03-08T01:02:05;23.65;;;14.98;;
23078;SDS011;11707;50.830;4.364;2024-03-08T01:04:31;22.17;;;14.18;;
23078;SDS011;11707;50.830;4.364;2024-03-08T01:06:58;23.77;;;15.00;;
23078;SDS011;11707;50.830;4.364;2024-03-08T01:09:24;23.35;;;14.30;;
23078;SDS011;11707;50.830;4.364;2024-03-08T01:11:52;27.10;;;15.35;;
23078;SDS011;11707;50.830;4.364;2024-03-08T01:14:19;24.58;;;14.77;;
23078;SDS011;11707;50.830;4.364;2024-03-08T01:16:49;26.55;;;14.20;;
23078;SDS011;11707;50.830;4.364;2024-03-08T01:19:15;24.23;;;15.75;;
23078;SDS011;11707;50.830;4.364;2024-03-08T01:21:41;24.27;;;14.77;;
23078;SDS011;11707;50.830;4.364;2024-03-08T01:24:07;28.10;;;15.30;;
23078;SDS011;11707;50.830;4.364;2024-03-08T01:26:33;26.25;;;15.50;;
23078;SDS011;11707;50.830;4.364;2024-03-08T01:29:04;28.52;;;15.27;;
23078;SDS011;11707;50.830;4.364;2024-03-08T01:31:30;27.45;;;14.85;;
23078;SDS011;11707;50.830;4.364;2024-03-08T01:33:56;24.50;;;14.65;;
23078;SDS011;11707;50.830;4.364;2024-03-08T01:36:22;22.85;;;13.88;;
23078;SDS011;11707;50.830;4.364;2024-03-08T01:38:48;24.83;;;14.95;;
23078;SDS011;11707;50.830;4.364;2024-03-08T01:41:14;22.75;;;14.30;;
23078;SDS011;11707;50.830;4.364;2024-03-08T01:43:42;24.27;;;15.07;;
23078;SDS011;11707;50.830;4.364;2024-03-08T01:46:08;25.45;;;15.15;;
23078;SDS011;11707;50.830;4.364;2024-03-08T01:48:40;23.83;;;15.15;;
23078;SDS011;11707;50.830;4.364;2024-03-08T01:51:06;27.70;;;16.58;;
23078;SDS011;11707;50.830;4.364;2024-03-08T01:53:32;23.80;;;15.40;;
23078;SDS011;11707;50.830;4.364;2024-03-08T01:56:03;25.63;;;14.85;;
23078;SDS011;11707;50.830;4.364;2024-03-08T01:58:32;24.42;;;15.45;;
23078;SDS011;11707;50.830;4.364;2024-03-08T02:00:58;28.63;;;16.70;;
23078;SDS011;11707;50.830;4.364;2024-03-08T02:03:25;25.73;;;16.20;;
23078;SDS011;11707;50.830;4.364;2024-03-08T02:05:51;27.33;;;15.60;;
23078;SDS011;11707;50.830;4.364;2024-03-08T02:08:17;24.52;;;15.68;;
23078;SDS011;11707;50.830;4.364;2024-03-08T02:10:44;24.40;;;16.10;;
23078;SDS011;11707;50.830;4.364;2024-03-08T02:13:10;27.58;;;16.60;;
23078;SDS011;11707;50.830;4.364;2024-03-08T02:18:27;23.02;;;15.95;;
23078;SDS011;11707;50.830;4.364;2024-03-08T02:20:54;23.83;;;16.42;;
23078;SDS011;11707;50.830;4.364;2024-03-08T02:23:21;26.70;;;17.30;;
23078;SDS011;11707;50.830;4.364;2024-03-08T02:25:50;25.35;;;17.35;;
23078;SDS011;11707;50.830;4.364;2024-03-08T02:28:19;30.38;;;18.23;;
23078;SDS011;11707;50.830;4.364;2024-03-08T02:30:46;25.90;;;16.55;;
23078;SDS011;11707;50.830;4.364;2024-03-08T02:33:16;26.40;;;16.25;;
23078;SDS011;11707;50.830;4.364;2024-03-08T02:35:45;24.52;;;17.02;;
23078;SDS011;11707;50.830;4.364;2024-03-08T02:38:12;28.75;;;17.10;;
23078;SDS011;11707;50.830;4.364;2024-03-08T02:40:38;30.95;;;18.00;;
23078;SDS011;11707;50.830;4.364;2024-03-08T02:43:06;24.42;;;16.38;;
23078;SDS011;11707;50.830;4.364;2024-03-08T02:45:34;24.30;;;16.75;;
23078;SDS011;11707;50.830;4.364;2024-03-08T02:48:00;25.83;;;17.30;;
23078;SDS011;11707;50.830;4.364;2024-03-08T02:50:28;27.95;;;16.85;;
23078;SDS011;11707;50.830;4.364;2024-03-08T02:52:54;27.98;;;18.35;;
23078;SDS011;11707;50.830;4.364;2024-03-08T02:55:19;25.45;;;17.35;;
23078;SDS011;11707;50.830;4.364;2024-03-08T02:57:48;31.63;;;19.70;;
23078;SDS011;11707;50.830;4.364;2024-03-08T03:00:16;29.05;;;18.85;;
23078;SDS011;11707;50.830;4.364;2024-03-08T03:02:45;28.30;;;17.65;;
23078;SDS011;11707;50.830;4.364;2024-03-08T03:05:14;26.73;;;17.58;;
23078;SDS011;11707;50.830;4.364;2024-03-08T03:07:49;26.83;;;17.80;;
23078;SDS011;11707;50.830;4.364;2024-03-08T03:10:19;28.95;;;18.35;;
23078;SDS011;11707;50.830;4.364;2024-03-08T03:12:47;26.25;;;19.02;;
23078;SDS011;11707;50.830;4.364;2024-03-08T03:15:16;24.77;;;17.55;;
23078;SDS011;11707;50.830;4.364;2024-03-08T03:17:48;24.27;;;18.38;;
23078;SDS011;11707;50.830;4.364;2024-03-08T03:20:18;24.02;;;18.45;;
23078;SDS011;11707;50.830;4.364;2024-03-08T03:23:05;28.60;;;18.13;;
23078;SDS011;11707;50.830;4.364;2024-03-08T03:25:33;25.40;;;18.45;;
23078;SDS011;11707;50.830;4.364;2024-03-08T03:28:02;25.98;;;18.58;;
23078;SDS011;11707;50.830;4.364;2024-03-08T03:30:29;27.40;;;17.98;;
23078;SDS011;11707;50.830;4.364;2024-03-08T03:33:01;26.33;;;18.77;;
23078;SDS011;11707;50.830;4.364;2024-03-08T03:35:34;26.35;;;17.88;;
23078;SDS011;11707;50.830;4.364;2024-03-08T03:38:01;30.13;;;18.50;;
23078;SDS011;11707;50.830;4.364;2024-03-08T03:40:32;24.60;;;18.42;;
23078;SDS011;11707;50.830;4.364;2024-03-08T03:43:02;27.80;;;18.05;;
23078;SDS011;11707;50.830;4.364;2024-03-08T03:45:28;29.17;;;19.50;;
23078;SDS011;11707;50.830;4.364;2024-03-08T03:47:54;29.20;;;19.35;;
23078;SDS011;11707;50.830;4.364;2024-03-08T03:50:21;31.45;;;19.17;;
23078;SDS011;11707;50.830;4.364;2024-03-08T03:52:47;28.00;;;19.48;;
23078;SDS011;11707;50.830;4.364;2024-03-08T03:55:13;30.85;;;18.60;;
23078;SDS011;11707;50.830;4.364;2024-03-08T03:57:39;29.38;;;19.13;;
23078;SDS011;11707;50.830;4.364;2024-03-08T04:00:06;26.27;;;18.73;;
23078;SDS011;11707;50.830;4.364;2024-03-08T04:02:35;33.08;;;19.83;;
23078;SDS011;11707;50.830;4.364;2024-03-08T04:05:05;28.20;;;19.58;;
23078;SDS011;11707;50.830;4.364;2024-03-08T04:07:32;27.85;;;19.20;;
23078;SDS011;11707;50.830;4.364;2024-03-08T04:09:58;27.98;;;19.35;;
23078;SDS011;11707;50.830;4.364;2024-03-08T04:12:26;29.67;;;19.33;;
23078;SDS011;11707;50.830;4.364;2024-03-08T04:14:54;27.75;;;19.25;;
23078;SDS011;11707;50.830;4.364;2024-03-08T04:17:20;23.88;;;18.38;;
23078;SDS011;11707;50.830;4.364;2024-03-08T04:19:46;29.10;;;18.75;;
23078;SDS011;11707;50.830;4.364;2024-03-08T04:22:14;29.23;;;19.05;;
23078;SDS011;11707;50.830;4.364;2024-03-08T04:24:41;30.88;;;19.05;;
23078;SDS011;11707;50.830;4.364;2024-03-08T04:27:07;29.75;;;19.65;;
23078;SDS011;11707;50.830;4.364;2024-03-08T04:29:35;30.67;;;19.90;;
23078;SDS011;11707;50.830;4.364;2024-03-08T04:32:02;31.92;;;20.10;;
23078;SDS011;11707;50.830;4.364;2024-03-08T04:34:32;30.50;;;20.48;;
23078;SDS011;11707;50.830;4.364;2024-03-08T04:36:59;27.23;;;19.88;;
23078;SDS011;11707;50.830;4.364;2024-03-08T04:39:26;29.52;;;20.23;;
23078;SDS011;11707;50.830;4.364;2024-03-08T04:41:56;29.42;;;20.30;;
23078;SDS011;11707;50.830;4.364;2024-03-08T04:44:26;34.80;;;20.15;;
23078;SDS011;11707;50.830;4.364;2024-03-08T04:46:52;32.25;;;19.88;;
23078;SDS011;11707;50.830;4.364;2024-03-08T04:49:17;29.17;;;19.63;;
23078;SDS011;11707;50.830;4.364;2024-03-08T04:51:43;28.58;;;20.50;;
23078;SDS011;11707;50.830;4.364;2024-03-08T04:54:11;29.67;;;19.77;;
23078;SDS011;11707;50.830;4.364;2024-03-08T04:56:39;27.45;;;19.90;;
23078;SDS011;11707;50.830;4.364;2024-03-08T04:59:05;27.88;;;19.67;;
23078;SDS011;11707;50.830;4.364;2024-03-08T05:01:33;26.50;;;18.10;;
23078;SDS011;11707;50.830;4.364;2024-03-08T05:03:59;27.42;;;20.02;;
23078;SDS011;11707;50.830;4.364;2024-03-08T05:06:24;31.23;;;21.10;;
23078;SDS011;11707;50.830;4.364;2024-03-08T05:08:50;27.20;;;18.40;;
23078;SDS011;11707;50.830;4.364;2024-03-08T05:11:16;31.38;;;21.33;;
23078;SDS011;11707;50.830;4.364;2024-03-08T05:13:41;32.65;;;20.13;;
23078;SDS011;11707;50.830;4.364;2024-03-08T05:16:08;30.92;;;20.20;;
23078;SDS011;11707;50.830;4.364;2024-03-08T05:18:34;29.95;;;20.38;;
23078;SDS011;11707;50.830;4.364;2024-03-08T05:21:01;31.27;;;20.00;;
23078;SDS011;11707;50.830;4.364;2024-03-08T05:23:29;30.80;;;20.13;;
23078;SDS011;11707;50.830;4.364;2024-03-08T05:25:55;27.35;;;19.83;;
23078;SDS011;11707;50.830;4.364;2024-03-08T05:28:23;28.27;;;19.27;;
23078;SDS011;11707;50.830;4.364;2024-03-08T05:30:49;29.67;;;20.13;;
23078;SDS011;11707;50.830;4.364;2024-03-08T05:33:14;28.70;;;18.70;;
23078;SDS011;11707;50.830;4.364;2024-03-08T05:35:40;35.10;;;20.65;;
23078;SDS011;11707;50.830;4.364;2024-03-08T05:38:06;29.50;;;20.27;;
23078;SDS011;11707;50.830;4.364;2024-03-08T05:40:32;30.23;;;19.38;;
23078;SDS011;11707;50.830;4.364;2024-03-08T05:43:00;30.73;;;19.70;;
23078;SDS011;11707;50.830;4.364;2024-03-08T05:45:26;29.60;;;19.25;;
23078;SDS011;11707;50.830;4.364;2024-03-08T05:47:52;27.70;;;18.98;;
23078;SDS011;11707;50.830;4.364;2024-03-08T05:50:21;31.65;;;20.67;;
23078;SDS011;11707;50.830;4.364;2024-03-08T05:52:47;29.77;;;20.00;;
23078;SDS011;11707;50.830;4.364;2024-03-08T05:55:13;27.23;;;19.77;;
23078;SDS011;11707;50.830;4.364;2024-03-08T05:57:41;34.08;;;19.42;;
23078;SDS011;11707;50.830;4.364;2024-03-08T06:00:08;26.92;;;18.27;;
23078;SDS011;11707;50.830;4.364;2024-03-08T06:02:38;29.58;;;19.92;;
23078;SDS011;11707;50.830;4.364;2024-03-08T06:05:07;33.22;;;20.90;;
23078;SDS011;11707;50.830;4.364;2024-03-08T06:07:38;27.73;;;20.20;;
23078;SDS011;11707;50.830;4.364;2024-03-08T06:10:06;27.70;;;19.15;;
23078;SDS011;11707;50.830;4.364;2024-03-08T06:12:35;28.73;;;19.42;;
23078;SDS011;11707;50.830;4.364;2024-03-08T06:15:05;29.58;;;20.08;;
23078;SDS011;11707;50.830;4.364;2024-03-08T06:17:32;33.05;;;19.70;;
23078;SDS011;11707;50.830;4.364;2024-03-08T06:19:57;28.98;;;18.60;;
23078;SDS011;11707;50.830;4.364;2024-03-08T06:22:23;32.28;;;19.20;;
23078;SDS011;11707;50.830;4.364;2024-03-08T06:24:49;31.70;;;19.40;;
23078;SDS011;11707;50.830;4.364;2024-03-08T06:27:19;35.35;;;19.20;;
23078;SDS011;11707;50.830;4.364;2024-03-08T06:29:45;30.58;;;20.33;;
23078;SDS011;11707;50.830;4.364;2024-03-08T06:32:16;36.40;;;20.95;;
23078;SDS011;11707;50.830;4.364;2024-03-08T06:34:41;31.13;;;19.63;;
23078;SDS011;11707;50.830;4.364;2024-03-08T06:37:07;36.08;;;20.60;;
23078;SDS011;11707;50.830;4.364;2024-03-08T06:39:35;31.33;;;19.02;;
23078;SDS011;11707;50.830;4.364;2024-03-08T06:42:01;29.33;;;17.40;;
23078;SDS011;11707;50.830;4.364;2024-03-08T06:44:27;28.75;;;19.20;;
23078;SDS011;11707;50.830;4.364;2024-03-08T06:46:52;31.63;;;18.95;;
23078;SDS011;11707;50.830;4.364;2024-03-08T06:49:20;28.92;;;18.80;;
23078;SDS011;11707;50.830;4.364;2024-03-08T06:51:46;27.73;;;18.83;;
23078;SDS011;11707;50.830;4.364;2024-03-08T06:54:14;30.38;;;20.60;;
23078;SDS011;11707;50.830;4.364;2024-03-08T06:56:40;32.08;;;19.77;;
23078;SDS011;11707;50.830;4.364;2024-03-08T06:59:06;28.92;;;18.83;;
23078;SDS011;11707;50.830;4.364;2024-03-08T07:01:31;30.13;;;19.35;;
23078;SDS011;11707;50.830;4.364;2024-03-08T07:03:59;30.13;;;20.40;;
23078;SDS011;11707;50.830;4.364;2024-03-08T07:06:27;30.92;;;19.73;;
23078;SDS011;11707;50.830;4.364;2024-03-08T07:08:53;27.75;;;19.33;;
23078;SDS011;11707;50.830;4.364;2024-03-08T07:11:19;29.77;;;19.33;;
23078;SDS011;11707;50.830;4.364;2024-03-08T07:13:47;34.95;;;20.48;;
23078;SDS011;11707;50.830;4.364;2024-03-08T07:16:13;29.70;;;19.15;;
23078;SDS011;11707;50.830;4.364;2024-03-08T07:18:41;31.30;;;21.48;;
23078;SDS011;11707;50.830;4.364;2024-03-08T07:21:08;33.00;;;19.88;;
23078;SDS011;11707;50.830;4.364;2024-03-08T07:23:35;28.42;;;18.70;;
23078;SDS011;11707;50.830;4.364;2024-03-08T07:26:20;27.30;;;18.63;;
23078;SDS011;11707;50.830;4.364;2024-03-08T07:28:45;28.52;;;19.17;;
23078;SDS011;11707;50.830;4.364;2024-03-08T07:31:11;30.27;;;20.02;;
23078;SDS011;11707;50.830;4.364;2024-03-08T07:33:37;32.80;;;20.40;;
23078;SDS011;11707;50.830;4.364;2024-03-08T07:36:03;27.33;;;18.88;;
23078;SDS011;11707;50.830;4.364;2024-03-08T07:38:29;26.23;;;18.38;;
23078;SDS011;11707;50.830;4.364;2024-03-08T07:40:55;42.20;;;19.35;;
23078;SDS011;11707;50.830;4.364;2024-03-08T07:43:22;29.60;;;18.10;;
23078;SDS011;11707;50.830;4.364;2024-03-08T07:45:52;32.35;;;18.58;;
23078;SDS011;11707;50.830;4.364;2024-03-08T07:48:20;29.33;;;17.42;;
23078;SDS011;11707;50.830;4.364;2024-03-08T07:50:46;30.25;;;19.55;;
23078;SDS011;11707;50.830;4.364;2024-03-08T07:53:14;29.02;;;18.48;;
23078;SDS011;11707;50.830;4.364;2024-03-08T07:55:43;29.13;;;19.08;;
23078;SDS011;11707;50.830;4.364;2024-03-08T07:58:09;30.00;;;18.30;;
23078;SDS011;11707;50.830;4.364;2024-03-08T08:00:36;28.08;;;17.58;;
23078;SDS011;11707;50.830;4.364;2024-03-08T08:03:02;29.15;;;18.52;;
23078;SDS011;11707;50.830;4.364;2024-03-08T08:05:30;28.95;;;18.17;;
23078;SDS011;11707;50.830;4.364;2024-03-08T08:08:04;29.70;;;19.05;;
23078;SDS011;11707;50.830;4.364;2024-03-08T08:10:33;28.67;;;17.25;;
23078;SDS011;11707;50.830;4.364;2024-03-08T08:12:58;26.95;;;17.83;;
23078;SDS011;11707;50.830;4.364;2024-03-08T08:15:24;26.38;;;17.60;;
23078;SDS011;11707;50.830;4.364;2024-03-08T08:17:50;31.65;;;18.05;;
23078;SDS011;11707;50.830;4.364;2024-03-08T08:20:17;28.73;;;17.88;;
23078;SDS011;11707;50.830;4.364;2024-03-08T08:22:43;28.45;;;17.95;;
23078;SDS011;11707;50.830;4.364;2024-03-08T08:25:09;27.75;;;17.80;;
23078;SDS011;11707;50.830;4.364;2024-03-08T08:27:38;26.80;;;16.88;;
23078;SDS011;11707;50.830;4.364;2024-03-08T08:30:18;28.50;;;17.63;;
23078;SDS011;11707;50.830;4.364;2024-03-08T08:32:48;29.67;;;17.85;;
23078;SDS011;11707;50.830;4.364;2024-03-08T08:35:14;23.65;;;16.20;;
23078;SDS011;11707;50.830;4.364;2024-03-08T08:37:40;26.20;;;17.58;;
23078;SDS011;11707;50.830;4.364;2024-03-08T08:40:07;24.83;;;17.13;;
23078;SDS011;11707;50.830;4.364;2024-03-08T08:42:39;24.50;;;15.43;;
23078;SDS011;11707;50.830;4.364;2024-03-08T08:45:14;27.00;;;17.17;;
23078;SDS011;11707;50.830;4.364;2024-03-08T08:47:42;27.05;;;16.55;;
23078;SDS011;11707;50.830;4.364;2024-03-08T08:50:07;24.75;;;15.90;;
23078;SDS011;11707;50.830;4.364;2024-03-08T08:52:36;27.35;;;16.60;;
23078;SDS011;11707;50.830;4.364;2024-03-08T08:55:03;25.27;;;16.83;;
23078;SDS011;11707;50.830;4.364;2024-03-08T08:57:29;26.45;;;15.68;;
23078;SDS011;11707;50.830;4.364;2024-03-08T08:59:58;23.50;;;16.15;;
23078;SDS011;11707;50.830;4.364;2024-03-08T09:02:25;25.67;;;16.90;;
23078;SDS011;11707;50.830;4.364;2024-03-08T09:04:51;25.00;;;16.80;;
23078;SDS011;11707;50.830;4.364;2024-03-08T09:07:17;25.25;;;16.08;;
23078;SDS011;11707;50.830;4.364;2024-03-08T09:09:44;25.13;;;16.25;;
23078;SDS011;11707;50.830;4.364;2024-03-08T09:12:10;23.98;;;15.93;;
23078;SDS011;11707;50.830;4.364;2024-03-08T09:14:42;33.22;;;23.98;;
23078;SDS011;11707;50.830;4.364;2024-03-08T09:17:12;24.88;;;15.70;;
23078;SDS011;11707;50.830;4.364;2024-03-08T09:19:42;25.20;;;15.60;;
23078;SDS011;11707;50.830;4.364;2024-03-08T09:22:08;22.35;;;14.48;;
23078;SDS011;11707;50.830;4.364;2024-03-08T09:24:36;23.10;;;14.95;;
23078;SDS011;11707;50.830;4.364;2024-03-08T09:27:01;21.38;;;15.00;;
23078;SDS011;11707;50.830;4.364;2024-03-08T09:29:28;25.58;;;15.45;;
23078;SDS011;11707;50.830;4.364;2024-03-08T09:31:54;23.00;;;15.35;;
23078;SDS011;11707;50.830;4.364;2024-03-08T09:34:19;25.38;;;15.05;;
23078;SDS011;11707;50.830;4.364;2024-03-08T09:36:48;25.15;;;15.38;;
23078;SDS011;11707;50.830;4.364;2024-03-08T09:39:18;20.85;;;14.82;;
23078;SDS011;11707;50.830;4.364;2024-03-08T09:41:47;21.92;;;14.85;;
23078;SDS011;11707;50.830;4.364;2024-03-08T09:44:15;22.73;;;14.13;;
23078;SDS011;11707;50.830;4.364;2024-03-08T09:46:41;20.02;;;13.05;;
23078;SDS011;11707;50.830;4.364;2024-03-08T09:49:07;22.60;;;14.77;;
23078;SDS011;11707;50.830;4.364;2024-03-08T09:51:35;21.45;;;14.02;;
23078;SDS011;11707;50.830;4.364;2024-03-08T09:54:02;22.30;;;14.25;;
23078;SDS011;11707;50.830;4.364;2024-03-08T09:56:33;29.23;;;13.75;;
23078;SDS011;11707;50.830;4.364;2024-03-08T09:59:01;19.83;;;14.35;;
23078;SDS011;11707;50.830;4.364;2024-03-08T10:01:37;19.75;;;13.73;;
23078;SDS011;11707;50.830;4.364;2024-03-08T10:04:05;22.65;;;14.70;;
23078;SDS011;11707;50.830;4.364;2024-03-08T10:06:32;21.67;;;14.10;;
23078;SDS011;11707;50.830;4.364;2024-03-08T10:08:58;20.30;;;13.63;;
23078;SDS011;11707;50.830;4.364;2024-03-08T10:11:26;21.20;;;14.25;;
23078;SDS011;11707;50.830;4.364;2024-03-08T10:13:52;26.98;;;15.80;;
23078;SDS011;11707;50.830;4.364;2024-03-08T10:16:18;22.00;;;14.60;;
23078;SDS011;11707;50.830;4.364;2024-03-08T10:18:51;21.48;;;14.95;;
23078;SDS011;11707;50.830;4.364;2024-03-08T10:21:18;19.02;;;13.93;;
23078;SDS011;11707;50.830;4.364;2024-03-08T10:23:47;20.88;;;15.43;;
23078;SDS011;11707;50.830;4.364;2024-03-08T10:26:14;25.20;;;15.40;;
23078;SDS011;11707;50.830;4.364;2024-03-08T10:28:45;23.45;;;15.38;;
23078;SDS011;11707;50.830;4.364;2024-03-08T10:31:15;22.15;;;13.45;;
23078;SDS011;11707;50.830;4.364;2024-03-08T10:33:42;25.92;;;15.13;;
23078;SDS011;11707;50.830;4.364;2024-03-08T10:36:09;21.88;;;13.70;;
23078;SDS011;11707;50.830;4.364;2024-03-08T10:38:40;21.13;;;14.23;;
23078;SDS011;11707;50.830;4.364;2024-03-08T10:41:07;21.30;;;15.02;;
23078;SDS011;11707;50.830;4.364;2024-03-08T10:44:05;22.00;;;14.73;;
23078;SDS011;11707;50.830;4.364;2024-03-08T10:46:52;20.35;;;14.02;;
23078;SDS011;11707;50.830;4.364;2024-03-08T10:49:50;17.17;;;12.00;;
23078;SDS011;11707;50.830;4.364;2024-03-08T10:52:29;21.52;;;14.43;;
23078;SDS011;11707;50.830;4.364;2024-03-08T10:54:56;21.13;;;14.63;;
23078;SDS011;11707;50.830;4.364;2024-03-08T10:57:24;22.17;;;14.90;;
23078;SDS011;11707;50.830;4.364;2024-03-08T10:59:50;21.30;;;14.20;;
23078;SDS011;11707;50.830;4.364;2024-03-08T11:02:17;22.52;;;15.70;;
23078;SDS011;11707;50.830;4.364;2024-03-08T11:04:53;23.90;;;14.35;;
23078;SDS011;11707;50.830;4.364;2024-03-08T11:07:24;22.35;;;13.82;;
23078;SDS011;11707;50.830;4.364;2024-03-08T11:09:52;22.58;;;15.20;;
23078;SDS011;11707;50.830;4.364;2024-03-08T11:12:20;22.63;;;16.58;;
23078;SDS011;11707;50.830;4.364;2024-03-08T11:14:49;23.38;;;15.05;;
23078;SDS011;11707;50.830;4.364;2024-03-08T11:17:20;21.98;;;14.68;;
23078;SDS011;11707;50.830;4.364;2024-03-08T11:19:50;26.70;;;18.50;;
23078;SDS011;11707;50.830;4.364;2024-03-08T11:22:22;20.35;;;13.63;;
23078;SDS011;11707;50.830;4.364;2024-03-08T11:24:52;24.05;;;13.70;;
23078;SDS011;11707;50.830;4.364;2024-03-08T11:27:20;20.48;;;13.50;;
23078;SDS011;11707;50.830;4.364;2024-03-08T11:30:00;22.58;;;13.38;;
23078;SDS011;11707;50.830;4.364;2024-03-08T11:32:51;23.25;;;14.05;;
23078;SDS011;11707;50.830;4.364;2024-03-08T11:35:23;21.85;;;13.93;;
23078;SDS011;11707;50.830;4.364;2024-03-08T11:37:51;18.83;;;14.00;;
23078;SDS011;11707;50.830;4.364;2024-03-08T11:40:17;25.95;;;14.27;;
23078;SDS011;11707;50.830;4.364;2024-03-08T11:42:48;26.42;;;14.85;;
23078;SDS011;11707;50.830;4.364;2024-03-08T11:45:17;19.55;;;13.32;;
23078;SDS011;11707;50.830;4.364;2024-03-08T11:47:46;23.77;;;15.32;;
23078;SDS011;11707;50.830;4.364;2024-03-08T11:50:15;23.75;;;14.25;;
23078;SDS011;11707;50.830;4.364;2024-03-08T11:52:41;21.65;;;14.57;;
23078;SDS011;11707;50.830;4.364;2024-03-08T11:55:08;17.63;;;13.25;;
23078;SDS011;11707;50.830;4.364;2024-03-08T11:57:34;16.42;;;12.10;;
23078;SDS011;11707;50.830;4.364;2024-03-08T12:00:01;20.38;;;13.00;;
23078;SDS011;11707;50.830;4.364;2024-03-08T12:02:31;23.02;;;13.70;;
23078;SDS011;11707;50.830;4.364;2024-03-08T12:05:00;19.20;;;12.98;;
23078;SDS011;11707;50.830;4.364;2024-03-08T12:07:31;19.10;;;13.18;;
23078;SDS011;11707;50.830;4.364;2024-03-08T12:12:50;25.65;;;13.52;;
23078;SDS011;11707;50.830;4.364;2024-03-08T12:15:18;17.48;;;13.10;;
23078;SDS011;11707;50.830;4.364;2024-03-08T12:17:49;23.00;;;13.55;;
23078;SDS011;11707;50.830;4.364;2024-03-08T12:20:22;16.83;;;12.48;;
23078;SDS011;11707;50.830;4.364;2024-03-08T12:22:57;19.05;;;13.27;;
23078;SDS011;11707;50.830;4.364;2024-03-08T12:25:27;22.50;;;12.55;;
23078;SDS011;11707;50.830;4.364;2024-03-08T12:28:06;16.52;;;12.20;;
23078;SDS011;11707;50.830;4.364;2024-03-08T12:30:35;18.40;;;12.95;;
23078;SDS011;11707;50.830;4.364;2024-03-08T12:33:24;20.27;;;11.93;;
23078;SDS011;11707;50.830;4.364;2024-03-08T12:35:52;19.98;;;12.48;;
23078;SDS011;11707;50.830;4.364;2024-03-08T12:38:20;20.35;;;12.43;;
23078;SDS011;11707;50.830;4.364;2024-03-08T12:40:50;22.45;;;14.65;;
23078;SDS011;11707;50.830;4.364;2024-03-08T12:43:16;15.55;;;11.85;;
23078;SDS011;11707;50.830;4.364;2024-03-08T12:45:43;18.13;;;13.15;;
23078;SDS011;11707;50.830;4.364;2024-03-08T12:48:12;18.23;;;12.50;;
23078;SDS011;11707;50.830;4.364;2024-03-08T12:53:12;19.33;;;12.55;;
23078;SDS011;11707;50.830;4.364;2024-03-08T12:55:39;17.90;;;12.88;;
23078;SDS011;11707;50.830;4.364;2024-03-08T12:58:05;20.05;;;13.52;;
23078;SDS011;11707;50.830;4.364;2024-03-08T13:00:33;18.08;;;12.75;;
23078;SDS011;11707;50.830;4.364;2024-03-08T13:03:01;18.77;;;12.35;;
23078;SDS011;11707;50.830;4.364;2024-03-08T13:05:27;20.50;;;12.38;;
23078;SDS011;11707;50.830;4.364;2024-03-08T13:07:54;17.90;;;12.52;;
23078;SDS011;11707;50.830;4.364;2024-03-08T13:10:24;22.88;;;12.85;;
23078;SDS011;11707;50.830;4.364;2024-03-08T13:12:52;16.38;;;13.15;;
23078;SDS011;11707;50.830;4.364;2024-03-08T13:15:19;17.50;;;12.27;;
23078;SDS011;11707;50.830;4.364;2024-03-08T13:17:48;18.27;;;12.85;;
23078;SDS011;11707;50.830;4.364;2024-03-08T13:20:14;18.98;;;12.55;;
23078;SDS011;11707;50.830;4.364;2024-03-08T13:22:47;19.17;;;12.65;;
23078;SDS011;11707;50.830;4.364;2024-03-08T13:25:13;18.30;;;12.57;;
23078;SDS011;11707;50.830;4.364;2024-03-08T13:27:42;18.38;;;11.98;;
23078;SDS011;11707;50.830;4.364;2024-03-08T13:30:14;16.85;;;11.82;;
23078;SDS011;11707;50.830;4.364;2024-03-08T13:32:43;13.43;;;11.13;;
23078;SDS011;11707;50.830;4.364;2024-03-08T13:35:11;19.25;;;13.10;;
23078;SDS011;11707;50.830;4.364;2024-03-08T13:37:41;19.10;;;12.63;;
23078;SDS011;11707;50.830;4.364;2024-03-08T13:40:07;18.10;;;11.85;;
23078;SDS011;11707;50.830;4.364;2024-03-08T13:42:41;14.10;;;10.55;;
23078;SDS011;11707;50.830;4.364;2024-03-08T13:45:08;15.63;;;11.02;;
23078;SDS011;11707;50.830;4.364;2024-03-08T13:47:38;19.15;;;11.45;;
23078;SDS011;11707;50.830;4.364;2024-03-08T13:50:11;15.75;;;10.82;;
23078;SDS011;11707;50.830;4.364;2024-03-08T13:52:37;16.75;;;12.38;;
23078;SDS011;11707;50.830;4.364;2024-03-08T13:55:04;18.20;;;11.00;;
23078;SDS011;11707;50.830;4.364;2024-03-08T13:57:31;15.40;;;11.27;;
23078;SDS011;11707;50.830;4.364;2024-03-08T13:59:57;15.23;;;10.82;;
23078;SDS011;11707;50.830;4.364;2024-03-08T14:02:23;17.75;;;11.55;;
23078;SDS011;11707;50.830;4.364;2024-03-08T14:04:58;16.30;;;11.85;;
23078;SDS011;11707;50.830;4.364;2024-03-08T14:07:27;20.65;;;11.85;;
23078;SDS011;11707;50.830;4.364;2024-03-08T14:09:54;16.10;;;12.15;;
23078;SDS011;11707;50.830;4.364;2024-03-08T14:12:20;14.60;;;10.98;;
23078;SDS011;11707;50.830;4.364;2024-03-08T14:14:45;16.05;;;11.98;;
23078;SDS011;11707;50.830;4.364;2024-03-08T14:17:11;16.27;;;11.20;;
23078;SDS011;11707;50.830;4.364;2024-03-08T14:19:42;16.15;;;11.73;;
23078;SDS011;11707;50.830;4.364;2024-03-08T14:22:08;15.30;;;10.15;;
23078;SDS011;11707;50.830;4.364;2024-03-08T14:24:38;17.48;;;11.57;;
23078;SDS011;11707;50.830;4.364;2024-03-08T14:27:04;20.90;;;11.38;;
23078;SDS011;11707;50.830;4.364;2024-03-08T14:29:33;16.45;;;11.27;;
23078;SDS011;11707;50.830;4.364;2024-03-08T14:32:01;14.20;;;10.82;;
23078;SDS011;11707;50.830;4.364;2024-03-08T14:34:30;14.90;;;10.75;;